Time;durP1;ratioP1;P1;durP2;ratioP2;P2;SDS_P1;SDS_P2;PMS_P1;PMS_P2;Temp;Humidity;BMP_temperature;BMP_pressure;BME280_temperature;BME280_humidity;BME280_pressure;Samples;Min_cycle;Max_cycle;Signal;HPM_P1;HPM_P2
2023/11/30 00:00:06;;;;;;;9.63;7.47;;;;;;;;;;5013186;28;20512;-84
2023/11/30 00:02:35;;;;;;;10.47;6.13;;;;;;;;;;5011528;28;20428;-84
2023/11/30 00:05:08;;;;;;;10.40;6.87;;;;;;;;;;5012866;28;20802;-83
2023/11/30 00:07:34;;;;;;;9.90;6.67;;;;;;;;;;5013074;28;20512;-83
2023/11/30 00:10:00;;;;;;;8.17;5.63;;;;;;;;;;5013134;28;20508;-84
2023/11/30 00:12:26;;;;;;;8.63;5.73;;;;;;;;;;5012985;28;20489;-83
2023/11/30 00:14:52;;;;;;;8.53;6.30;;;;;;;;;;5012956;28;20504;-85
2023/11/30 00:17:18;;;;;;;7.53;5.57;;;;;;;;;;5012655;28;21061;-83
2023/11/30 00:19:44;;;;;;;10.77;6.60;;;;;;;;;;5013004;28;20413;-83
2023/11/30 00:22:13;;;;;;;9.37;7.23;;;;;;;;;;5012958;28;20398;-83
2023/11/30 00:24:38;;;;;;;10.07;6.97;;;;;;;;;;5012877;28;20457;-83
2023/11/30 00:27:04;;;;;;;9.67;4.87;;;;;;;;;;5012851;28;20413;-83
2023/11/30 00:29:30;;;;;;;7.50;4.47;;;;;;;;;;5012883;28;20899;-83
2023/11/30 00:31:56;;;;;;;13.00;5.70;;;;;;;;;;5012184;28;20820;-83
2023/11/30 00:34:22;;;;;;;6.13;4.97;;;;;;;;;;5012854;28;20509;-83
2023/11/30 00:36:48;;;;;;;9.00;4.87;;;;;;;;;;5012896;28;20421;-83
2023/11/30 00:39:14;;;;;;;8.23;5.90;;;;;;;;;;5012865;28;20479;-83
2023/11/30 00:41:42;;;;;;;9.17;5.60;;;;;;;;;;5012626;28;20421;-84
2023/11/30 00:44:08;;;;;;;7.80;4.50;;;;;;;;;;5012661;28;20489;-83
2023/11/30 00:46:34;;;;;;;7.20;5.30;;;;;;;;;;5012450;28;20549;-84
2023/11/30 00:49:01;;;;;;;7.20;4.87;;;;;;;;;;5012732;28;20822;-85
2023/11/30 00:51:28;;;;;;;7.43;5.90;;;;;;;;;;5012702;28;20930;-84
2023/11/30 00:53:54;;;;;;;9.67;5.20;;;;;;;;;;5012686;28;20414;-85
2023/11/30 00:56:20;;;;;;;6.83;4.43;;;;;;;;;;5013907;28;20427;-85
2023/11/30 00:58:46;;;;;;;9.87;6.67;;;;;;;;;;5016146;28;20774;-84
2023/11/30 01:01:15;;;;;;;7.73;5.13;;;;;;;;;;5015693;28;20981;-84
2023/11/30 01:03:41;;;;;;;10.80;5.33;;;;;;;;;;5014745;28;20418;-84
2023/11/30 01:06:07;;;;;;;10.60;6.70;;;;;;;;;;5014718;28;20477;-84
2023/11/30 01:08:33;;;;;;;8.97;6.03;;;;;;;;;;5015854;28;20868;-84
2023/11/30 01:10:59;;;;;;;9.77;7.03;;;;;;;;;;5015902;28;20489;-83
2023/11/30 01:13:24;;;;;;;8.67;6.87;;;;;;;;;;5014551;28;20411;-83
2023/11/30 01:15:50;;;;;;;10.30;6.07;;;;;;;;;;5015426;28;20456;-83
2023/11/30 01:18:16;;;;;;;11.30;6.57;;;;;;;;;;4980495;28;21507;-83
2023/11/30 01:20:42;;;;;;;7.57;6.70;;;;;;;;;;5010753;28;20476;-83
2023/11/30 01:23:08;;;;;;;11.83;7.40;;;;;;;;;;5015678;28;20410;-83
2023/11/30 01:25:34;;;;;;;10.80;6.83;;;;;;;;;;5015512;28;20523;-84
2023/11/30 01:28:09;;;;;;;8.83;7.47;;;;;;;;;;5015522;28;20459;-83
2023/11/30 01:30:35;;;;;;;12.70;7.40;;;;;;;;;;5015368;28;20908;-82
2023/11/30 01:33:01;;;;;;;9.40;6.80;;;;;;;;;;5015187;28;20414;-83
2023/11/30 01:35:28;;;;;;;6.60;5.43;;;;;;;;;;5014119;28;20444;-83
2023/11/30 01:37:55;;;;;;;11.00;6.77;;;;;;;;;;5015345;28;20414;-83
2023/11/30 01:40:22;;;;;;;10.00;7.80;;;;;;;;;;5015308;28;20423;-83
2023/11/30 01:42:48;;;;;;;8.83;6.70;;;;;;;;;;5015272;28;20425;-83
2023/11/30 01:45:14;;;;;;;11.50;6.87;;;;;;;;;;5015188;28;20474;-83
2023/11/30 01:47:40;;;;;;;14.47;9.03;;;;;;;;;;5014810;28;20415;-84
2023/11/30 01:50:06;;;;;;;8.13;6.33;;;;;;;;;;5015173;28;20418;-84
2023/11/30 01:52:32;;;;;;;7.37;6.10;;;;;;;;;;5013866;28;20420;-84
2023/11/30 01:55:01;;;;;;;8.77;5.80;;;;;;;;;;5015109;28;20779;-83
2023/11/30 01:57:28;;;;;;;9.97;7.27;;;;;;;;;;5015090;28;20517;-84
2023/11/30 01:59:54;;;;;;;8.67;6.50;;;;;;;;;;5014960;28;20472;-83
2023/11/30 02:02:20;;;;;;;13.20;7.60;;;;;;;;;;5014551;28;20417;-84
2023/11/30 02:04:49;;;;;;;7.63;5.40;;;;;;;;;;5014853;28;20457;-83
2023/11/30 02:07:15;;;;;;;11.17;7.10;;;;;;;;;;5014287;28;20433;-84
2023/11/30 02:09:41;;;;;;;9.10;6.13;;;;;;;;;;5014621;28;20409;-84
2023/11/30 02:12:07;;;;;;;8.67;5.83;;;;;;;;;;5013416;28;20437;-83
2023/11/30 02:14:33;;;;;;;9.80;6.60;;;;;;;;;;5014647;28;20769;-83
2023/11/30 02:16:59;;;;;;;10.10;7.67;;;;;;;;;;5014363;28;20420;-83
2023/11/30 02:19:25;;;;;;;9.60;6.87;;;;;;;;;;5014487;28;20418;-82
2023/11/30 02:21:51;;;;;;;9.83;5.40;;;;;;;;;;5014600;28;20445;-83
2023/11/30 02:24:20;;;;;;;8.20;6.37;;;;;;;;;;5014492;28;20763;-82
2023/11/30 02:26:46;;;;;;;9.70;6.90;;;;;;;;;;5014420;28;20406;-82
2023/11/30 02:29:15;;;;;;;10.97;7.77;;;;;;;;;;5014416;28;20421;-83
2023/11/30 02:31:41;;;;;;;9.80;7.27;;;;;;;;;;5013810;28;20457;-83
2023/11/30 02:34:10;;;;;;;9.17;6.83;;;;;;;;;;5014388;28;20446;-83
2023/11/30 02:36:35;;;;;;;9.23;6.80;;;;;;;;;;5013102;28;20417;-83
2023/11/30 02:39:02;;;;;;;10.77;7.40;;;;;;;;;;5014324;28;20921;-83
2023/11/30 02:41:28;;;;;;;10.00;6.93;;;;;;;;;;5014246;28;20501;-83
2023/11/30 02:43:54;;;;;;;11.80;7.77;;;;;;;;;;5014212;28;20468;-84
2023/11/30 02:46:21;;;;;;;9.97;6.90;;;;;;;;;;5013717;28;21036;-84
2023/11/30 02:48:46;;;;;;;9.77;7.10;;;;;;;;;;5012853;28;20922;-83
2023/11/30 02:51:12;;;;;;;10.43;7.00;;;;;;;;;;5014104;28;20428;-84
2023/11/30 02:53:38;;;;;;;11.83;7.53;;;;;;;;;;5013988;28;20406;-83
2023/11/30 02:56:04;;;;;;;10.50;7.00;;;;;;;;;;5013954;28;20414;-83
2023/11/30 02:58:30;;;;;;;13.07;7.67;;;;;;;;;;5013880;28;20442;-84
2023/11/30 03:00:56;;;;;;;11.50;7.60;;;;;;;;;;5013505;28;20457;-83
2023/11/30 03:03:22;;;;;;;15.07;7.30;;;;;;;;;;5013750;28;20501;-83
2023/11/30 03:05:49;;;;;;;10.57;7.43;;;;;;;;;;5013679;28;20473;-83
2023/11/30 03:08:15;;;;;;;9.10;6.00;;;;;;;;;;5013824;28;20410;-83
2023/11/30 03:10:41;;;;;;;9.30;7.60;;;;;;;;;;5013713;28;20421;-84
2023/11/30 03:13:06;;;;;;;9.47;7.57;;;;;;;;;;5012393;28;20432;-84
2023/11/30 03:15:32;;;;;;;11.30;7.10;;;;;;;;;;5013251;28;20432;-84
2023/11/30 03:17:58;;;;;;;11.63;7.60;;;;;;;;;;5012397;28;20946;-84
2023/11/30 03:20:27;;;;;;;10.77;6.67;;;;;;;;;;5012260;28;20491;-83
2023/11/30 03:22:53;;;;;;;10.47;7.07;;;;;;;;;;5012108;28;20426;-83
2023/11/30 03:25:19;;;;;;;11.53;7.33;;;;;;;;;;5013450;28;20531;-83
2023/11/30 03:27:45;;;;;;;11.03;8.60;;;;;;;;;;5013401;28;20467;-83
2023/11/30 03:30:11;;;;;;;11.20;7.83;;;;;;;;;;5012100;28;20819;-83
2023/11/30 03:32:37;;;;;;;13.13;8.60;;;;;;;;;;5012679;28;20523;-83
2023/11/30 03:35:03;;;;;;;10.23;6.13;;;;;;;;;;5013376;28;20430;-83
2023/11/30 03:37:28;;;;;;;11.80;8.70;;;;;;;;;;5013176;28;20410;-83
2023/11/30 03:39:54;;;;;;;9.50;6.50;;;;;;;;;;5013260;28;20426;-83
2023/11/30 03:42:20;;;;;;;10.03;7.53;;;;;;;;;;5013239;28;20424;-84
2023/11/30 03:44:46;;;;;;;12.53;7.93;;;;;;;;;;5011887;28;20461;-84
2023/11/30 03:47:12;;;;;;;13.33;8.43;;;;;;;;;;5012906;28;20778;-83
2023/11/30 03:49:38;;;;;;;14.17;8.90;;;;;;;;;;5013188;28;20416;-84
2023/11/30 03:52:04;;;;;;;12.20;8.73;;;;;;;;;;5013270;28;20418;-84
2023/11/30 03:54:30;;;;;;;15.07;8.80;;;;;;;;;;5013138;28;20413;-83
2023/11/30 03:56:56;;;;;;;11.57;7.80;;;;;;;;;;5013144;28;20414;-83
2023/11/30 03:59:22;;;;;;;13.03;7.87;;;;;;;;;;5013029;28;20894;-84
2023/11/30 04:01:47;;;;;;;15.30;8.87;;;;;;;;;;5012639;28;20417;-84
2023/11/30 04:04:13;;;;;;;14.33;9.73;;;;;;;;;;5013030;28;20417;-84
2023/11/30 04:06:39;;;;;;;12.07;9.20;;;;;;;;;;4970939;28;20449;-84
2023/11/30 04:09:08;;;;;;;13.50;9.43;;;;;;;;;;5011844;28;20412;-84
2023/11/30 04:11:34;;;;;;;11.93;9.00;;;;;;;;;;5013072;28;20444;-84
2023/11/30 04:14:04;;;;;;;14.13;9.70;;;;;;;;;;5013155;28;20398;-84
2023/11/30 04:16:30;;;;;;;14.70;9.40;;;;;;;;;;5012708;28;20417;-83
2023/11/30 04:18:56;;;;;;;12.13;7.33;;;;;;;;;;5011782;28;20418;-85
2023/11/30 04:21:22;;;;;;;12.60;9.30;;;;;;;;;;5012921;28;20418;-84
2023/11/30 04:23:48;;;;;;;11.07;7.77;;;;;;;;;;5013046;28;20410;-85
2023/11/30 04:26:14;;;;;;;10.73;7.70;;;;;;;;;;5012875;28;20569;-85
2023/11/30 04:28:40;;;;;;;15.60;10.50;;;;;;;;;;5012963;28;20406;-85
2023/11/30 04:31:06;;;;;;;14.03;7.10;;;;;;;;;;5012092;28;20461;-85
2023/11/30 04:33:32;;;;;;;13.93;8.37;;;;;;;;;;5016657;28;20421;-86
2023/11/30 04:35:58;;;;;;;21.33;9.97;;;;;;;;;;5016530;28;20418;-84
2023/11/30 04:38:24;;;;;;;12.43;8.10;;;;;;;;;;5015349;28;20426;-85
2023/11/30 04:40:50;;;;;;;14.73;9.17;;;;;;;;;;5016504;28;20420;-84
2023/11/30 04:43:15;;;;;;;13.23;8.37;;;;;;;;;;5016541;28;20417;-85
2023/11/30 04:45:41;;;;;;;16.23;9.43;;;;;;;;;;5014689;28;20499;-84
2023/11/30 04:48:07;;;;;;;15.07;10.10;;;;;;;;;;5016249;28;20471;-84
2023/11/30 04:50:33;;;;;;;11.87;8.87;;;;;;;;;;5016356;28;20452;-84
2023/11/30 04:52:59;;;;;;;12.93;8.53;;;;;;;;;;5016255;28;20453;-85
2023/11/30 04:55:28;;;;;;;12.53;8.40;;;;;;;;;;5016237;28;20441;-84
2023/11/30 04:57:54;;;;;;;14.50;9.80;;;;;;;;;;5016107;28;21016;-84
2023/11/30 05:00:20;;;;;;;10.33;8.00;;;;;;;;;;5015783;28;20486;-82
2023/11/30 05:02:55;;;;;;;12.80;8.20;;;;;;;;;;5016099;28;20748;-83
2023/11/30 05:05:21;;;;;;;13.47;10.13;;;;;;;;;;5014829;28;20461;-84
2023/11/30 05:07:48;;;;;;;14.73;9.40;;;;;;;;;;5029204;28;20426;-83
2023/11/30 05:10:14;;;;;;;14.63;8.67;;;;;;;;;;5035607;28;20412;-84
2023/11/30 05:12:40;;;;;;;12.20;7.87;;;;;;;;;;5050914;28;20428;-83
2023/11/30 05:15:06;;;;;;;15.20;8.80;;;;;;;;;;5035320;28;20841;-83
2023/11/30 05:17:33;;;;;;;13.80;10.30;;;;;;;;;;5035424;28;20412;-83
2023/11/30 05:19:58;;;;;;;14.43;8.33;;;;;;;;;;4982105;28;20469;-84
2023/11/30 05:22:24;;;;;;;11.60;8.10;;;;;;;;;;5015650;28;20446;-84
2023/11/30 05:24:50;;;;;;;17.50;8.67;;;;;;;;;;5015504;28;20480;-84
2023/11/30 05:27:17;;;;;;;14.50;9.77;;;;;;;;;;5015522;28;20408;-84
2023/11/30 05:29:43;;;;;;;15.33;8.97;;;;;;;;;;5015499;28;20418;-83
2023/11/30 05:32:08;;;;;;;11.27;8.23;;;;;;;;;;5014953;28;20462;-84
2023/11/30 05:34:37;;;;;;;13.83;9.17;;;;;;;;;;5015417;28;20449;-84
2023/11/30 05:37:07;;;;;;;10.70;7.97;;;;;;;;;;5015325;28;20441;-83
2023/11/30 05:39:32;;;;;;;12.07;8.57;;;;;;;;;;5014118;28;20460;-84
2023/11/30 05:41:59;;;;;;;11.57;8.17;;;;;;;;;;5014570;28;20449;-83
2023/11/30 05:44:25;;;;;;;12.97;8.33;;;;;;;;;;5013076;28;20422;-83
2023/11/30 05:46:51;;;;;;;12.30;8.47;;;;;;;;;;5013559;28;20491;-84
2023/11/30 05:49:17;;;;;;;16.40;8.57;;;;;;;;;;5015063;28;20417;-83
2023/11/30 05:51:43;;;;;;;13.70;8.10;;;;;;;;;;5013835;28;20434;-83
2023/11/30 05:54:10;;;;;;;12.47;9.20;;;;;;;;;;5013710;28;20466;-83
2023/11/30 05:56:36;;;;;;;14.43;9.00;;;;;;;;;;5013631;28;20979;-83
2023/11/30 05:59:02;;;;;;;12.30;8.50;;;;;;;;;;5014998;28;20424;-83
2023/11/30 06:01:28;;;;;;;12.43;9.03;;;;;;;;;;5014372;28;20424;-84
2023/11/30 06:03:55;;;;;;;14.80;10.57;;;;;;;;;;5013393;28;20516;-84
2023/11/30 06:06:21;;;;;;;14.07;9.50;;;;;;;;;;5014670;28;20480;-83
2023/11/30 06:08:47;;;;;;;13.50;9.00;;;;;;;;;;5014733;28;20492;-83
2023/11/30 06:11:15;;;;;;;14.30;9.80;;;;;;;;;;5014512;28;20442;-83
2023/11/30 06:13:41;;;;;;;13.07;9.47;;;;;;;;;;5014468;28;20491;-83
2023/11/30 06:16:07;;;;;;;13.33;9.53;;;;;;;;;;5014391;28;20905;-83
2023/11/30 06:18:33;;;;;;;11.73;8.80;;;;;;;;;;5013394;28;20480;-83
2023/11/30 06:20:59;;;;;;;18.20;10.27;;;;;;;;;;5014600;28;20414;-83
2023/11/30 06:23:25;;;;;;;13.80;10.00;;;;;;;;;;5014433;28;20422;-83
2023/11/30 06:25:51;;;;;;;16.17;9.60;;;;;;;;;;5014293;28;20487;-83
2023/11/30 06:28:17;;;;;;;18.07;10.90;;;;;;;;;;5013025;28;20420;-83
2023/11/30 06:30:44;;;;;;;16.77;9.90;;;;;;;;;;5013972;28;20415;-83
2023/11/30 06:33:10;;;;;;;13.83;9.90;;;;;;;;;;5013080;28;20507;-83
2023/11/30 06:35:36;;;;;;;17.87;11.20;;;;;;;;;;5014358;28;20846;-83
2023/11/30 06:38:02;;;;;;;16.13;9.73;;;;;;;;;;5014273;28;20419;-83
2023/11/30 06:40:29;;;;;;;15.53;10.03;;;;;;;;;;5013037;28;20434;-83
2023/11/30 06:42:54;;;;;;;14.30;9.87;;;;;;;;;;5014099;28;20413;-82
2023/11/30 06:45:23;;;;;;;14.00;10.17;;;;;;;;;;5013792;28;20474;-82
2023/11/30 06:47:49;;;;;;;12.97;9.80;;;;;;;;;;5013994;28;20432;-82
2023/11/30 06:50:15;;;;;;;12.20;9.57;;;;;;;;;;5012755;28;20451;-82
2023/11/30 06:52:41;;;;;;;15.33;8.60;;;;;;;;;;5013899;28;20498;-82
2023/11/30 06:55:07;;;;;;;17.87;10.63;;;;;;;;;;5013583;28;20424;-82
2023/11/30 06:57:34;;;;;;;16.73;10.47;;;;;;;;;;5013917;28;20436;-83
2023/11/30 07:00:03;;;;;;;17.03;10.13;;;;;;;;;;5013512;28;20438;-82
2023/11/30 07:02:29;;;;;;;15.57;11.00;;;;;;;;;;5013743;28;20399;-84
2023/11/30 07:04:55;;;;;;;24.33;12.07;;;;;;;;;;5013660;28;21013;-84
2023/11/30 07:07:21;;;;;;;17.77;11.23;;;;;;;;;;5013657;28;20422;-84
2023/11/30 07:09:47;;;;;;;16.90;11.27;;;;;;;;;;5013864;28;20431;-82
2023/11/30 07:12:13;;;;;;;19.60;11.73;;;;;;;;;;5013816;28;20424;-85
2023/11/30 07:14:39;;;;;;;16.90;10.67;;;;;;;;;;5012695;28;20436;-85
2023/11/30 07:17:05;;;;;;;15.40;9.70;;;;;;;;;;5013353;28;20411;-88
2023/11/30 07:19:31;;;;;;;14.73;9.80;;;;;;;;;;5015057;28;20920;-84
2023/11/30 07:21:57;;;;;;;17.77;10.97;;;;;;;;;;5014497;28;20412;-84
2023/11/30 07:24:23;;;;;;;19.60;12.50;;;;;;;;;;5013974;28;20424;-86
2023/11/30 07:26:49;;;;;;;15.60;10.27;;;;;;;;;;5014921;28;20429;-87
2023/11/30 07:29:15;;;;;;;19.30;12.25;;;;;;;;;;5014735;28;20423;-87
2023/11/30 07:31:43;;;;;;;19.53;10.50;;;;;;;;;;5022240;28;20733;-86
2023/11/30 07:34:09;;;;;;;22.07;12.27;;;;;;;;;;5021217;28;20441;-87
2023/11/30 07:36:35;;;;;;;17.20;11.13;;;;;;;;;;4973706;28;20475;-86
2023/11/30 07:39:01;;;;;;;16.53;10.30;;;;;;;;;;5007296;28;20454;-85
2023/11/30 07:41:27;;;;;;;20.67;11.30;;;;;;;;;;4995416;28;20512;-87
2023/11/30 07:43:53;;;;;;;15.60;11.07;;;;;;;;;;4993985;28;20449;-85
2023/11/30 07:46:19;;;;;;;18.33;11.70;;;;;;;;;;4992261;28;20916;-85
2023/11/30 07:48:45;;;;;;;18.57;10.23;;;;;;;;;;5019888;28;20422;-85
2023/11/30 07:51:11;;;;;;;16.07;11.10;;;;;;;;;;5024115;28;20512;-86
2023/11/30 07:53:37;;;;;;;21.73;14.30;;;;;;;;;;5022520;28;20406;-85
2023/11/30 07:56:03;;;;;;;22.70;11.90;;;;;;;;;;5024993;28;20414;-87
2023/11/30 07:58:29;;;;;;;18.40;12.10;;;;;;;;;;5028118;28;20420;-87
2023/11/30 08:00:56;;;;;;;17.57;11.27;;;;;;;;;;5017025;28;20415;-87
2023/11/30 08:03:22;;;;;;;16.10;11.20;;;;;;;;;;5019590;28;20447;-86
2023/11/30 08:05:48;;;;;;;20.80;12.50;;;;;;;;;;5024185;28;20481;-86
2023/11/30 08:08:14;;;;;;;15.60;11.07;;;;;;;;;;5027965;28;20404;-85
2023/11/30 08:10:40;;;;;;;15.87;11.40;;;;;;;;;;5025345;28;20859;-86
2023/11/30 08:13:07;;;;;;;14.50;10.50;;;;;;;;;;5028559;28;20422;-85
2023/11/30 08:15:33;;;;;;;19.30;11.70;;;;;;;;;;5033991;28;20850;-86
2023/11/30 08:17:59;;;;;;;16.60;10.80;;;;;;;;;;5028833;28;20484;-83
2023/11/30 08:20:26;;;;;;;14.07;10.80;;;;;;;;;;5016986;28;20426;-84
2023/11/30 08:22:52;;;;;;;20.60;12.20;;;;;;;;;;5025196;28;20471;-85
2023/11/30 08:25:18;;;;;;;15.53;11.03;;;;;;;;;;5022563;28;20543;-84
2023/11/30 08:27:44;;;;;;;19.60;10.87;;;;;;;;;;5021643;28;20405;-84
2023/11/30 08:30:10;;;;;;;20.73;11.03;;;;;;;;;;5017433;28;20415;-87
2023/11/30 08:32:39;;;;;;;17.93;11.33;;;;;;;;;;5025882;28;20464;-86
2023/11/30 08:35:06;;;;;;;18.70;11.67;;;;;;;;;;4989944;28;20433;-86
2023/11/30 08:37:32;;;;;;;17.77;10.60;;;;;;;;;;5024852;28;20483;-87
2023/11/30 08:39:59;;;;;;;18.60;10.50;;;;;;;;;;5030167;28;20404;-86
2023/11/30 08:42:25;;;;;;;20.03;11.20;;;;;;;;;;5026696;28;20400;-85
2023/11/30 08:44:51;;;;;;;18.97;11.90;;;;;;;;;;5024700;28;20464;-85
2023/11/30 08:47:17;;;;;;;20.73;11.67;;;;;;;;;;5024610;28;20414;-85
2023/11/30 08:49:46;;;;;;;20.07;12.10;;;;;;;;;;5024731;28;20439;-85
2023/11/30 08:52:12;;;;;;;16.87;10.90;;;;;;;;;;5046909;28;20425;-86
2023/11/30 08:54:38;;;;;;;14.00;9.60;;;;;;;;;;5035038;28;20417;-85
2023/11/30 08:57:07;;;;;;;22.07;11.30;;;;;;;;;;5036779;28;20447;-86
2023/11/30 08:59:33;;;;;;;20.03;11.47;;;;;;;;;;5036118;28;20441;-87
2023/11/30 09:01:59;;;;;;;12.57;9.13;;;;;;;;;;5036539;28;20455;-86
2023/11/30 09:04:25;;;;;;;14.80;9.07;;;;;;;;;;5038356;28;20507;-86
2023/11/30 09:06:51;;;;;;;16.93;9.63;;;;;;;;;;5036248;28;20424;-87
2023/11/30 09:09:19;;;;;;;17.13;10.23;;;;;;;;;;5034749;28;20416;-87
2023/11/30 09:11:45;;;;;;;20.23;10.97;;;;;;;;;;5035891;28;20500;-87
2023/11/30 09:14:11;;;;;;;21.53;11.60;;;;;;;;;;5036091;28;20433;-86
2023/11/30 09:16:37;;;;;;;24.00;13.63;;;;;;;;;;5034182;28;20504;-85
2023/11/30 09:19:06;;;;;;;17.97;10.53;;;;;;;;;;5035955;28;20419;-87
2023/11/30 09:21:32;;;;;;;18.10;11.50;;;;;;;;;;5035757;28;20912;-87
2023/11/30 09:24:00;;;;;;;19.03;12.40;;;;;;;;;;5034514;28;20422;-87
2023/11/30 09:26:26;;;;;;;21.40;11.50;;;;;;;;;;5035591;28;20512;-86
2023/11/30 09:28:52;;;;;;;18.50;11.40;;;;;;;;;;5034479;28;20502;-86
2023/11/30 09:31:18;;;;;;;18.13;10.37;;;;;;;;;;5034051;28;20470;-87
2023/11/30 09:33:44;;;;;;;18.67;10.70;;;;;;;;;;5035567;28;20410;-86
2023/11/30 09:36:11;;;;;;;15.60;11.03;;;;;;;;;;5035562;28;20415;-86
2023/11/30 09:38:36;;;;;;;21.47;11.90;;;;;;;;;;4989501;28;20488;-86
2023/11/30 09:41:08;;;;;;;16.70;11.67;;;;;;;;;;5015599;28;20774;-86
2023/11/30 09:43:35;;;;;;;18.53;12.37;;;;;;;;;;5015813;28;20406;-86
2023/11/30 09:46:01;;;;;;;17.27;11.97;;;;;;;;;;5015495;28;20472;-86
2023/11/30 09:48:27;;;;;;;18.73;10.97;;;;;;;;;;5015445;28;20414;-87
2023/11/30 09:50:53;;;;;;;19.27;12.27;;;;;;;;;;5014270;28;20959;-86
2023/11/30 09:53:18;;;;;;;21.20;10.43;;;;;;;;;;5014437;28;20417;-86
2023/11/30 09:55:44;;;;;;;18.30;10.80;;;;;;;;;;5015496;28;20424;-86
2023/11/30 09:58:10;;;;;;;21.63;11.97;;;;;;;;;;5015326;28;20416;-86
2023/11/30 10:00:36;;;;;;;25.33;12.53;;;;;;;;;;5014928;28;20789;-86
2023/11/30 10:03:05;;;;;;;19.60;12.70;;;;;;;;;;5013975;28;20417;-86
2023/11/30 10:05:31;;;;;;;20.60;11.93;;;;;;;;;;5014130;28;20489;-86
2023/11/30 10:07:58;;;;;;;20.67;11.97;;;;;;;;;;5014181;28;20418;-86
2023/11/30 10:10:24;;;;;;;20.37;12.53;;;;;;;;;;5015291;28;20415;-87
2023/11/30 10:12:50;;;;;;;24.03;13.37;;;;;;;;;;5015152;28;20421;-85
2023/11/30 10:15:17;;;;;;;17.07;11.57;;;;;;;;;;5014774;28;20426;-86
2023/11/30 10:17:42;;;;;;;22.47;13.90;;;;;;;;;;5015184;28;20749;-86
2023/11/30 10:20:11;;;;;;;21.83;14.20;;;;;;;;;;5015045;28;20410;-86
2023/11/30 10:22:39;;;;;;;22.17;13.03;;;;;;;;;;5014910;28;20414;-87
2023/11/30 10:25:05;;;;;;;20.13;12.40;;;;;;;;;;5014852;28;20465;-86
2023/11/30 10:27:33;;;;;;;18.93;12.17;;;;;;;;;;5013655;28;20441;-86
2023/11/30 10:30:04;;;;;;;17.37;11.17;;;;;;;;;;5012366;28;20558;-86
2023/11/30 10:32:37;;;;;;;22.97;13.90;;;;;;;;;;5013338;28;21011;-85
2023/11/30 10:35:12;;;;;;;24.80;15.00;;;;;;;;;;5014574;28;20459;-87
2023/11/30 10:37:40;;;;;;;37.73;24.13;;;;;;;;;;5013386;28;20418;-86
2023/11/30 10:40:10;;;;;;;75.97;48.43;;;;;;;;;;5013851;28;20479;-87
2023/11/30 10:42:36;;;;;;;33.90;18.33;;;;;;;;;;5016234;28;20415;-87
2023/11/30 10:45:04;;;;;;;45.47;32.10;;;;;;;;;;5012913;28;20574;-86
2023/11/30 10:47:30;;;;;;;18.03;10.67;;;;;;;;;;5013268;28;20433;-86
2023/11/30 10:49:59;;;;;;;13.43;8.97;;;;;;;;;;5014440;28;20402;-86
2023/11/30 10:52:27;;;;;;;15.37;8.83;;;;;;;;;;5013082;28;20521;-86
2023/11/30 10:55:13;;;;;;;17.33;10.23;;;;;;;;;;4953050;28;20435;-85
2023/11/30 10:57:45;;;;;;;13.33;8.73;;;;;;;;;;5004099;28;20422;-85
2023/11/30 11:00:12;;;;;;;16.13;9.73;;;;;;;;;;4919245;28;20797;-85
2023/11/30 11:02:38;;;;;;;17.87;11.90;;;;;;;;;;5014288;28;20429;-86
2023/11/30 11:05:14;;;;;;;14.30;11.10;;;;;;;;;;5013036;28;20457;-86
2023/11/30 11:07:50;;;;;;;21.83;12.93;;;;;;;;;;5014111;28;20406;-87
2023/11/30 11:10:32;;;;;;;12.97;8.37;;;;;;;;;;5014210;28;20435;-86
2023/11/30 11:12:59;;;;;;;23.53;16.20;;;;;;;;;;5014023;28;20423;-87
2023/11/30 11:15:28;;;;;;;19.30;12.37;;;;;;;;;;5013566;28;20480;-86
2023/11/30 11:17:55;;;;;;;25.93;15.60;;;;;;;;;;5013979;28;20399;-86
2023/11/30 11:20:25;;;;;;;23.33;14.50;;;;;;;;;;5013748;28;20410;-86
2023/11/30 11:22:57;;;;;;;13.27;8.63;;;;;;;;;;5029476;28;20469;-87
2023/11/30 11:25:25;;;;;;;18.70;11.43;;;;;;;;;;5032157;28;20469;-86
2023/11/30 11:27:51;;;;;;;12.60;8.87;;;;;;;;;;5032282;28;20985;-86
2023/11/30 11:30:17;;;;;;;17.60;11.97;;;;;;;;;;5031954;28;20931;-87
2023/11/30 11:32:43;;;;;;;18.83;16.17;;;;;;;;;;5031890;28;20493;-86
2023/11/30 11:35:13;;;;;;;18.93;11.13;;;;;;;;;;5033184;28;20456;-86
2023/11/30 11:37:38;;;;;;;17.10;10.97;;;;;;;;;;5033217;28;20499;-86
2023/11/30 11:40:05;;;;;;;16.47;12.83;;;;;;;;;;5018424;28;20454;-81
2023/11/30 11:42:32;;;;;;;16.90;12.00;;;;;;;;;;5012493;28;20919;-83
2023/11/30 11:45:00;;;;;;;16.47;10.60;;;;;;;;;;5012674;28;20461;-90
2023/11/30 11:47:26;;;;;;;15.87;10.23;;;;;;;;;;5014381;28;20432;-92
2023/11/30 11:49:52;;;;;;;16.33;9.67;;;;;;;;;;5018867;28;20985;-90
2023/11/30 11:52:19;;;;;;;12.30;9.20;;;;;;;;;;5030028;28;20463;-90
2023/11/30 11:54:46;;;;;;;15.10;8.83;;;;;;;;;;4986972;28;20989;-91
2023/11/30 11:57:11;;;;;;;15.20;11.70;;;;;;;;;;5013088;28;20447;-88
2023/11/30 11:59:37;;;;;;;13.87;10.13;;;;;;;;;;5013770;28;20904;-88
2023/11/30 12:02:03;;;;;;;13.97;9.67;;;;;;;;;;5012998;28;20441;-86
2023/11/30 12:04:31;;;;;;;14.87;9.13;;;;;;;;;;5013547;28;20409;-86
2023/11/30 12:06:57;;;;;;;8.00;7.17;;;;;;;;;;5012533;28;20799;-85
2023/11/30 12:09:26;;;;;;;9.20;7.63;;;;;;;;;;5013768;28;20864;-90
2023/11/30 12:11:52;;;;;;;9.83;6.73;;;;;;;;;;5012697;28;20417;-89
2023/11/30 12:14:20;;;;;;;10.07;7.50;;;;;;;;;;5013653;28;20407;-89
2023/11/30 12:16:46;;;;;;;9.47;6.27;;;;;;;;;;5013929;28;20450;-90
2023/11/30 12:19:12;;;;;;;8.03;5.90;;;;;;;;;;5012574;28;20419;-88
2023/11/30 12:21:40;;;;;;;13.47;7.17;;;;;;;;;;5013893;28;20891;-89
2023/11/30 12:24:06;;;;;;;10.03;6.83;;;;;;;;;;5013820;28;20414;-87
2023/11/30 12:26:32;;;;;;;7.53;5.97;;;;;;;;;;5013816;28;20466;-84
2023/11/30 12:28:58;;;;;;;8.47;6.53;;;;;;;;;;5013993;28;20407;-89
2023/11/30 12:31:27;;;;;;;10.57;6.97;;;;;;;;;;5034037;28;20947;-85
2023/11/30 12:33:53;;;;;;;10.40;6.90;;;;;;;;;;5036689;28;20432;-87
2023/11/30 12:36:19;;;;;;;7.50;5.80;;;;;;;;;;5043564;28;20408;-90
2023/11/30 12:38:45;;;;;;;7.70;5.47;;;;;;;;;;5033593;28;20805;-89
2023/11/30 12:41:11;;;;;;;8.50;5.53;;;;;;;;;;5033565;28;20417;-86
2023/11/30 12:43:37;;;;;;;7.70;5.70;;;;;;;;;;5048958;28;20826;-85
2023/11/30 12:46:04;;;;;;;8.30;6.13;;;;;;;;;;5032957;28;20509;-88
2023/11/30 12:48:29;;;;;;;8.43;5.83;;;;;;;;;;5032757;28;20404;-85
2023/11/30 12:50:55;;;;;;;9.13;6.13;;;;;;;;;;5033032;28;20505;-89
2023/11/30 12:53:21;;;;;;;9.70;7.47;;;;;;;;;;5036704;28;20409;-87
2023/11/30 12:55:47;;;;;;;9.33;6.90;;;;;;;;;;5037582;28;20447;-84
2023/11/30 12:58:13;;;;;;;10.73;6.57;;;;;;;;;;5054353;28;20470;-83
2023/11/30 13:00:39;;;;;;;11.60;7.27;;;;;;;;;;5051351;28;20417;-83
2023/11/30 13:03:08;;;;;;;11.17;6.70;;;;;;;;;;5063579;28;20443;-85
2023/11/30 13:05:34;;;;;;;10.10;7.27;;;;;;;;;;5048000;28;20468;-83
2023/11/30 13:08:00;;;;;;;8.80;6.23;;;;;;;;;;5053782;28;20979;-88
2023/11/30 13:10:27;;;;;;;16.80;9.00;;;;;;;;;;5036286;28;20477;-83
2023/11/30 13:12:53;;;;;;;9.70;7.20;;;;;;;;;;5051717;28;20834;-87
2023/11/30 13:15:19;;;;;;;14.00;7.70;;;;;;;;;;5051144;28;20478;-85
2023/11/30 13:17:47;;;;;;;10.53;7.33;;;;;;;;;;5048371;28;20410;-82
2023/11/30 13:20:13;;;;;;;11.70;8.43;;;;;;;;;;5015288;28;20793;-83
2023/11/30 13:22:41;;;;;;;10.67;7.13;;;;;;;;;;5015537;28;20410;-82
2023/11/30 13:25:07;;;;;;;10.97;7.40;;;;;;;;;;5015418;28;20487;-83
2023/11/30 13:27:33;;;;;;;14.10;9.30;;;;;;;;;;5015501;28;20521;-82
2023/11/30 13:29:59;;;;;;;18.10;9.43;;;;;;;;;;5014847;28;20457;-82
2023/11/30 13:32:29;;;;;;;19.77;15.10;;;;;;;;;;5013980;28;20492;-82
2023/11/30 13:34:55;;;;;;;11.70;8.17;;;;;;;;;;5015364;28;20492;-83
2023/11/30 13:37:22;;;;;;;15.10;11.03;;;;;;;;;;5015164;28;20458;-83
2023/11/30 13:39:48;;;;;;;11.33;7.17;;;;;;;;;;5013782;28;20977;-82
2023/11/30 13:42:13;;;;;;;11.70;7.77;;;;;;;;;;5015231;28;20418;-82
2023/11/30 13:44:39;;;;;;;9.17;6.97;;;;;;;;;;5014736;28;20425;-82
2023/11/30 13:47:07;;;;;;;11.90;8.77;;;;;;;;;;5015109;28;20425;-84
2023/11/30 13:49:33;;;;;;;15.87;9.10;;;;;;;;;;5013827;28;20409;-83
2023/11/30 13:51:59;;;;;;;16.77;10.40;;;;;;;;;;5014959;28;20419;-82
2023/11/30 13:54:26;;;;;;;12.20;8.27;;;;;;;;;;5015147;28;20920;-82
2023/11/30 13:56:52;;;;;;;12.60;8.67;;;;;;;;;;5015020;28;20937;-82
2023/11/30 13:59:18;;;;;;;11.07;7.77;;;;;;;;;;5014487;28;20451;-82
2023/11/30 14:01:44;;;;;;;10.47;6.60;;;;;;;;;;5014913;28;20501;-83
2023/11/30 14:04:11;;;;;;;12.13;7.57;;;;;;;;;;5013473;28;21006;-83
2023/11/30 14:06:37;;;;;;;13.03;8.37;;;;;;;;;;5013155;28;20478;-83
2023/11/30 14:09:12;;;;;;;11.50;7.40;;;;;;;;;;5014398;28;20435;-81
2023/11/30 14:11:38;;;;;;;7.67;6.27;;;;;;;;;;5014779;28;20399;-83
2023/11/30 14:14:05;;;;;;;10.77;6.60;;;;;;;;;;5014162;28;20761;-83
2023/11/30 14:16:31;;;;;;;9.27;6.60;;;;;;;;;;5014702;28;20417;-82
2023/11/30 14:18:57;;;;;;;10.20;7.17;;;;;;;;;;5014394;28;20399;-82
2023/11/30 14:21:23;;;;;;;12.50;7.47;;;;;;;;;;5013281;28;20472;-83
2023/11/30 14:23:49;;;;;;;12.43;7.20;;;;;;;;;;4977298;28;20463;-82